Campanya meteocatpedra

Dades EMA Guardiola de Berguedà

?
?
Resum diari 22:30 TU
Dades diàries de l'estació meteorològica
Temperatura mitjana 18.6 °C
Temperatura màxima 27.8 °C 13:45 TU
Temperatura mínima 7.9 °C 4:32 TU
Humitat relativa mitjana 66%
Precipitació acumulada 0.0 mm
Ratxa màxima del vent (10 m) 25.2 km/h - 88º 16:00 TU
Pressió atmosfèrica mitjana 1018.5 hPa
Irradiació solar global 28.6 MJ/m2

El tram horari està expressat en Temps Universal (TU). Cal sumar una hora en horari d'hivern i dues en horari d'estiu per passar a l'hora oficial.

Guardiola de Berguedà

Metadades estació meteorol´gica
Municipi Guardiola de Berguedà
Comarca Berguedà
Altitud 788 m
Data alta 28.11.2005
Estat actual Operativa
Dades de període
Període
TU
TM
°C
TX
°C
TN
°C
HRM
%
PPT
mm
VVM (10 m)
km/h
DVM (10 m)
graus
VVX (10 m)
km/h
PM
hPa
RS
W/m2
00:00 - 00:30 11.6 11.8 11.3 100 0.0 1.8 308 7.2 1022.9 0
00:30 - 01:00 11.2 11.7 10.7 100 0.0 1.8 268 6.8 1023.1 0
01:00 - 01:30 10.7 11.0 10.3 100 0.0 1.1 278 4.7 1023.1 0
01:30 - 02:00 10.2 10.4 10.0 100 0.0 1.8 269 4.7 1023.3 0
02:00 - 02:30 9.8 10.0 9.5 100 0.0 0.4 296 2.9 1023.5 0
02:30 - 03:00 9.2 9.5 9.1 100 0.0 0.7 315 4.3 1023.7 0
03:00 - 03:30 8.9 9.1 8.7 100 0.0 1.4 295 4.0 1023.8 0
03:30 - 04:00 8.6 8.7 8.4 100 0.0 1.1 267 3.2 1023.9 0
04:00 - 04:30 8.4 8.5 8.0 100 0.0 0.7 289 3.2 1024.1 0
04:30 - 05:00 8.0 8.1 7.9 100 0.0 0.0 248 2.2 1024.4 16
05:00 - 05:30 9.1 9.7 8.1 100 0.0 1.8 27 6.5 1024.1 100
05:30 - 06:00 10.8 11.5 9.8 94 0.0 2.5 17 6.5 1023.5 189
06:00 - 06:30 12.7 13.9 11.5 83 0.0 2.2 41 5.4 1022.6 293
06:30 - 07:00 14.2 15.3 13.4 77 0.0 3.2 39 6.1 1021.9 359
07:00 - 07:30 16.3 17.3 15.5 69 0.0 3.2 43 7.2 1020.9 466
07:30 - 08:00 18.4 19.3 17.4 61 0.0 3.2 80 6.5 1019.8 562
08:00 - 08:30 20.5 21.7 19.2 51 0.0 2.9 63 6.1 1018.9 650
08:30 - 09:00 22.7 23.5 21.7 47 0.0 3.2 118 10.4 1017.9 730
09:00 - 09:30 24.1 24.5 23.6 46 0.0 4.0 164 11.5 1017.1 801
09:30 - 10:00 24.7 25.1 24.3 45 0.0 5.4 172 15.8 1016.7 858
10:00 - 10:30 25.2 25.5 24.7 44 0.0 5.4 178 18.4 1016.3 904
10:30 - 11:00 25.4 25.8 25.1 44 0.0 6.5 172 17.6 1015.9 939
11:00 - 11:30 25.9 26.3 25.4 42 0.0 6.1 176 17.6 1015.4 941
11:30 - 12:00 26.3 26.8 25.9 41 0.0 6.8 169 19.1 1015.1 969
12:00 - 12:30 26.5 27.0 26.3 40 0.0 7.6 162 18.0 1014.8 969
12:30 - 13:00 26.9 27.2 26.6 40 0.0 7.6 169 23.0 1014.5 966
13:00 - 13:30 27.1 27.6 26.7 40 0.0 7.2 162 20.2 1014.2 984
13:30 - 14:00 27.5 27.8 26.7 39 0.0 8.3 157 21.2 1013.9 951
14:00 - 14:30 26.6 27.3 26.3 40 0.0 6.1 171 15.1 1013.9 624
14:30 - 15:00 26.9 27.4 26.2 38 0.0 6.5 156 17.3 1013.7 636
15:00 - 15:30 27.3 27.6 26.6 37 0.0 5.8 174 15.5 1013.3 628
15:30 - 16:00 26.1 26.6 25.5 41 0.0 7.6 83 21.2 1013.6 373
16:00 - 16:30 25.5 26.6 25.2 44 0.0 12.2 45 25.2 1013.9 292
16:30 - 17:00 25.1 25.3 24.9 44 0.0 9.4 132 18.0 1014.2 350
17:00 - 17:30 24.5 25.3 23.7 42 0.0 6.1 203 14.8 1014.6 235
17:30 - 18:00 23.5 23.7 22.8 44 0.0 5.0 211 10.8 1014.9 98
18:00 - 18:30 22.1 22.8 21.5 48 0.0 6.1 219 10.8 1015.7 30
18:30 - 19:00 20.2 21.4 19.1 57 0.0 2.5 253 9.4 1016.4 13
19:00 - 19:30 18.6 19.0 18.3 63 0.0 1.4 253 4.3 1017.3 1
19:30 - 20:00 18.0 18.5 17.3 63 0.0 1.8 266 9.0 1017.8 0
20:00 - 20:30 16.6 17.2 16.3 70 0.0 1.8 252 6.8 1018.7 0
20:30 - 21:00 15.7 16.3 15.0 75 0.0 1.4 248 4.7 1019.3 0
21:00 - 21:30 14.9 15.2 14.5 77 0.0 2.5 239 6.1 1019.7 0
21:30 - 22:00 14.3 14.7 13.8 80 0.0 0.7 247 4.0 1019.7 0
22:00 - 22:30 13.7 14.0 13.5 84 0.0 0.7 262 3.2 1019.8 0
22:30 - 23:00 13.3 13.5 12.8 87 0.0 0.4 279 4.0 1019.8 0

Les dades en taronja només han passat un control de qualitat automàtic. Resta pendent la seva validació definitiva.